createdAt,value
2022-11-28T00:01:28.582Z,100276.78
2022-11-28T00:03:56.888Z,100268.41
2022-11-28T00:06:24.879Z,100271.69
2022-11-28T00:08:54.787Z,100280.06
2022-11-28T00:11:23.368Z,100277.00
2022-11-28T00:13:51.045Z,100271.28
2022-11-28T00:16:21.655Z,100273.72
2022-11-28T00:18:49.830Z,100259.59
2022-11-28T00:21:18.359Z,100261.25
2022-11-28T00:23:47.110Z,100249.38
2022-11-28T00:26:18.105Z,100249.53
2022-11-28T00:28:45.861Z,100249.59
2022-11-28T00:31:14.543Z,100248.94
2022-11-28T00:33:44.293Z,100245.03
2022-11-28T00:36:13.263Z,100250.38
2022-11-28T00:38:41.290Z,100237.25
2022-11-28T00:41:13.855Z,100247.72
2022-11-28T00:44:43.606Z,100236.66
2022-11-28T00:47:12.723Z,100219.63
2022-11-28T00:49:40.318Z,100202.03
2022-11-28T00:52:08.043Z,100200.81
2022-11-28T00:54:36.785Z,100210.03
2022-11-28T00:57:05.448Z,100221.91
2022-11-28T00:59:32.988Z,100208.41
2022-11-28T01:02:01.088Z,100203.88
2022-11-28T01:04:30.414Z,100206.38
2022-11-28T01:06:58.405Z,100209.22
2022-11-28T01:09:26.449Z,100210.25
2022-11-28T01:11:55.284Z,100216.63
2022-11-28T01:14:38.874Z,100207.81
2022-11-28T01:17:07.695Z,100200.22
2022-11-28T01:19:36.775Z,100203.31
2022-11-28T01:22:06.340Z,100200.22
2022-11-28T01:24:33.997Z,100203.50
2022-11-28T01:27:02.710Z,100198.16
2022-11-28T01:29:30.425Z,100201.44
2022-11-28T01:31:58.543Z,100186.28
2022-11-28T01:34:26.323Z,100194.50
2022-11-28T01:36:55.467Z,100188.94
2022-11-28T01:39:23.277Z,100180.56
2022-11-28T01:41:51.247Z,100176.44
2022-11-28T01:44:56.421Z,100170.72
2022-11-28T01:47:26.873Z,100163.75
2022-11-28T01:49:55.225Z,100159.25
2022-11-28T01:52:24.496Z,100163.34
2022-11-28T01:55:09.765Z,100164.78
2022-11-28T01:57:37.358Z,100164.78
2022-11-28T02:00:09.191Z,100160.91
2022-11-28T02:02:40.496Z,100155.53
2022-11-28T02:05:09.002Z,100153.50
2022-11-28T02:07:38.770Z,100151.88
2022-11-28T02:10:08.388Z,100161.69
2022-11-28T02:12:45.949Z,100155.31
2022-11-28T02:15:30.564Z,100151.63
2022-11-28T02:18:10.896Z,100153.06
2022-11-28T02:20:55.467Z,100149.78
2022-11-28T02:23:27.499Z,100151.81
2022-11-28T02:26:10.886Z,100157.56
2022-11-28T02:29:03.569Z,100152.44
2022-11-28T02:32:05.210Z,100156.72
2022-11-28T02:34:36.580Z,100153.44
2022-11-28T02:37:07.949Z,100146.91
2022-11-28T02:39:41.420Z,100144.00
2022-11-28T02:42:13.604Z,100144.41
2022-11-28T02:44:44.489Z,100136.41
2022-11-28T02:47:17.072Z,100144.22
2022-11-28T02:49:48.244Z,100136.41
2022-11-28T02:52:19.207Z,100126.00
2022-11-28T02:54:48.780Z,100121.09
2022-11-28T02:57:16.918Z,100127.03
2022-11-28T02:59:49.774Z,100115.34
2022-11-28T03:02:21.075Z,100109.22
2022-11-28T03:04:54.768Z,100120.69
2022-11-28T03:07:33.021Z,100116.59
2022-11-28T03:10:15.720Z,100121.91
2022-11-28T03:12:52.714Z,100125.81
2022-11-28T03:15:23.922Z,100128.47
2022-11-28T03:18:02.969Z,100137.72
2022-11-28T03:20:36.948Z,100132.19
2022-11-28T03:23:14.206Z,100139.34
2022-11-28T03:25:51.342Z,100133.78
2022-11-28T03:28:26.205Z,100138.34
2022-11-28T03:30:56.330Z,100139.34
2022-11-28T03:33:27.119Z,100144.06
2022-11-28T03:35:57.684Z,100134.63
2022-11-28T03:38:29.821Z,100138.94
2022-11-28T03:41:00.309Z,100133.63
2022-11-28T03:43:33.288Z,100128.28
2022-11-28T03:46:06.057Z,100138.34
2022-11-28T03:48:37.330Z,100140.78
2022-11-28T03:51:08.431Z,100148.16
2022-11-28T03:53:40.589Z,100146.94
2022-11-28T03:56:13.001Z,100147.56
2022-11-28T03:58:44.854Z,100147.34
2022-11-28T04:01:16.307Z,100152.69
2022-11-28T04:03:48.204Z,100160.03
2022-11-28T04:06:18.246Z,100167.41
2022-11-28T04:08:50.362Z,100166.59
2022-11-28T04:11:20.122Z,100167.84
2022-11-28T04:13:53.075Z,100165.59
2022-11-28T04:16:24.176Z,100157.97
2022-11-28T04:18:56.930Z,100158.00
2022-11-28T04:21:28.077Z,100165.78
2022-11-28T04:23:59.788Z,100162.31
2022-11-28T04:26:30.330Z,100165.38
2022-11-28T04:28:58.775Z,100161.47
2022-11-28T04:31:27.193Z,100164.13
2022-11-28T04:33:59.863Z,100169.06
2022-11-28T04:36:28.313Z,100161.47
2022-11-28T04:38:58.511Z,100162.91
2022-11-28T04:41:29.917Z,100161.25
2022-11-28T04:44:02.096Z,100166.97
2022-11-28T04:46:34.276Z,100159.22
2022-11-28T04:49:03.496Z,100168.19
2022-11-28T04:51:37.606Z,100161.66
2022-11-28T04:54:07.778Z,100158.38
2022-11-28T04:56:41.416Z,100154.28
2022-11-28T04:59:09.803Z,100147.72
2022-11-28T05:01:39.840Z,100136.63
2022-11-28T05:04:08.864Z,100145.25
2022-11-28T05:06:39.086Z,100139.09
2022-11-28T05:09:06.998Z,100138.25
2022-11-28T05:11:34.578Z,100139.50
2022-11-28T05:14:02.136Z,100140.31
2022-11-28T05:16:29.772Z,100144.19
2022-11-28T05:18:57.677Z,100146.06
2022-11-28T05:21:26.750Z,100157.09
2022-11-28T05:23:54.300Z,100155.88
2022-11-28T05:26:22.515Z,100152.19
2022-11-28T05:28:51.806Z,100157.31
2022-11-28T05:31:20.590Z,100165.69
2022-11-28T05:33:48.815Z,100166.31
2022-11-28T05:36:17.689Z,100162.59
2022-11-28T05:38:47.088Z,100163.25
2022-11-28T05:41:21.006Z,100162.81
2022-11-28T05:43:48.895Z,100161.59
2022-11-28T05:46:17.128Z,100160.59
2022-11-28T05:48:45.759Z,100161.81
2022-11-28T05:51:13.341Z,100174.13
2022-11-28T05:53:40.921Z,100174.13
2022-11-28T05:56:10.694Z,100168.38
2022-11-28T05:58:38.609Z,100175.53
2022-11-28T06:01:13.642Z,100178.00
2022-11-28T06:03:41.630Z,100176.78
2022-11-28T06:06:15.470Z,100176.38
2022-11-28T06:08:43.934Z,100173.09
2022-11-28T06:11:15.110Z,100177.78
2022-11-28T06:13:43.106Z,100184.34
2022-11-28T06:16:13.927Z,100176.38
2022-11-28T06:18:42.224Z,100176.38
2022-11-28T06:21:13.527Z,100168.81
2022-11-28T06:23:44.046Z,100176.38
2022-11-28T06:26:14.492Z,100172.69
2022-11-28T06:28:42.348Z,100178.84
2022-11-28T06:31:11.867Z,100175.56
2022-11-28T06:33:40.186Z,100168.59
2022-11-28T06:36:08.326Z,100169.41
2022-11-28T06:38:36.231Z,100159.16
2022-11-28T06:41:06.635Z,100175.16
2022-11-28T06:43:35.770Z,100158.75
2022-11-28T06:46:04.033Z,100164.09
2022-11-28T06:48:32.313Z,100174.97
2022-11-28T06:51:04.449Z,100166.53
2022-11-28T06:53:32.885Z,100172.69
2022-11-28T06:56:05.652Z,100166.94
2022-11-28T06:58:33.320Z,100171.69
2022-11-28T07:01:08.791Z,100163.25
2022-11-28T07:03:36.570Z,100174.34
2022-11-28T07:06:05.603Z,100161.59
2022-11-28T07:08:33.492Z,100166.13
2022-11-28T07:11:09.028Z,100166.53
2022-11-28T07:13:37.353Z,100180.47
2022-11-28T07:16:05.660Z,100170.66
2022-11-28T07:18:34.719Z,100173.09
2022-11-28T07:21:03.732Z,100179.25
2022-11-28T07:23:31.449Z,100172.47
2022-11-28T07:25:59.809Z,100171.47
2022-11-28T07:28:28.218Z,100181.00
2022-11-28T07:31:04.573Z,100187.78
2022-11-28T07:33:32.458Z,100190.03
2022-11-28T07:36:06.894Z,100180.63
2022-11-28T07:38:34.912Z,100188.44
2022-11-28T07:41:06.315Z,100195.19
2022-11-28T07:43:33.900Z,100196.81
2022-11-28T07:46:04.695Z,100197.22
2022-11-28T07:48:32.317Z,100201.31
2022-11-28T07:50:59.886Z,100204.41
2022-11-28T07:53:29.074Z,100208.50
2022-11-28T07:55:57.046Z,100195.19
2022-11-28T07:58:24.777Z,100199.31
2022-11-28T08:00:52.493Z,100195.59
2022-11-28T08:03:20.259Z,100189.06
2022-11-28T08:05:49.506Z,100196.03
2022-11-28T08:08:17.693Z,100195.00
2022-11-28T08:10:47.166Z,100191.16
2022-11-28T08:13:15.101Z,100188.31
2022-11-28T08:15:43.612Z,100190.78
2022-11-28T08:18:11.142Z,100203.25
2022-11-28T08:20:38.695Z,100194.09
2022-11-28T08:23:06.232Z,100196.53
2022-11-28T08:25:33.742Z,100193.25
2022-11-28T08:28:02.744Z,100190.81
2022-11-28T08:30:30.438Z,100184.88
2022-11-28T08:32:58.460Z,100180.56
2022-11-28T08:35:26.334Z,100178.94
2022-11-28T08:37:57.710Z,100186.34
2022-11-28T08:40:29.234Z,100179.97
2022-11-28T08:42:56.809Z,100180.59
2022-11-28T08:45:25.710Z,100172.38
2022-11-28T08:47:53.245Z,100156.78
2022-11-28T08:50:20.791Z,100159.66
2022-11-28T08:52:48.340Z,100160.09
2022-11-28T08:55:16.392Z,100158.06
2022-11-28T08:57:43.917Z,100158.88
2022-11-28T09:00:12.908Z,100158.88
2022-11-28T09:02:41.921Z,100160.53
2022-11-28T09:05:10.189Z,100161.56
2022-11-28T09:07:37.734Z,100162.78
2022-11-28T09:10:06.018Z,100160.94
2022-11-28T09:12:34.690Z,100158.06
2022-11-28T09:15:02.248Z,100155.00
2022-11-28T09:17:29.783Z,100162.19
2022-11-28T09:19:58.862Z,100166.25
2022-11-28T09:22:26.578Z,100171.19
2022-11-28T09:24:54.154Z,100169.34
2022-11-28T09:27:21.661Z,100172.84
2022-11-28T09:29:49.399Z,100179.19
2022-11-28T09:32:16.923Z,100172.41
2022-11-28T09:34:44.461Z,100182.25
2022-11-28T09:37:13.382Z,100183.50
2022-11-28T09:40:04.746Z,100180.84
2022-11-28T09:42:32.320Z,100179.41
2022-11-28T09:45:01.933Z,100181.66
2022-11-28T09:47:31.680Z,100174.66
2022-11-28T09:50:02.108Z,100174.88
2022-11-28T09:52:35.006Z,100170.97
2022-11-28T09:55:12.593Z,100176.53
2022-11-28T09:57:42.288Z,100163.81
2022-11-28T10:00:17.271Z,100173.44
2022-11-28T10:02:55.878Z,100177.34
2022-11-28T10:05:27.946Z,100175.69
2022-11-28T10:08:11.030Z,100178.78
2022-11-28T10:10:45.798Z,100175.28
2022-11-28T10:13:17.466Z,100174.25
2022-11-28T10:15:50.029Z,100167.72
2022-11-28T10:18:30.797Z,100172.00
2022-11-28T10:21:00.653Z,100179.00
2022-11-28T10:23:32.027Z,100172.81
2022-11-28T10:26:02.020Z,100174.88
2022-11-28T10:28:31.855Z,100168.31
2022-11-28T10:31:06.857Z,100163.38
2022-11-28T10:33:39.487Z,100171.78
2022-11-28T10:36:08.855Z,100169.09
2022-11-28T10:38:37.783Z,100167.84
2022-11-28T10:41:09.287Z,100172.34
2022-11-28T10:43:43.950Z,100166.59
2022-11-28T10:46:32.496Z,100167.84
2022-11-28T10:49:04.870Z,100172.16
2022-11-28T10:51:36.096Z,100164.72
2022-11-28T10:54:20.957Z,100168.63
2022-11-28T10:56:57.005Z,100163.94
2022-11-28T10:59:32.269Z,100172.78
2022-11-28T11:02:00.511Z,100171.09
2022-11-28T11:04:28.610Z,100166.94
2022-11-28T11:07:10.199Z,100174.34
2022-11-28T11:09:43.629Z,100172.28
2022-11-28T11:12:17.171Z,100173.97
2022-11-28T11:14:45.127Z,100167.81
2022-11-28T11:17:28.951Z,100160.81
2022-11-28T11:19:58.862Z,100162.66
2022-11-28T11:22:31.805Z,100160.22
2022-11-28T11:25:11.312Z,100168.19
2022-11-28T11:27:40.037Z,100172.78
2022-11-28T11:30:19.220Z,100165.31
2022-11-28T11:32:51.425Z,100155.44
2022-11-28T11:35:22.371Z,100164.47
2022-11-28T11:37:50.046Z,100161.00
2022-11-28T11:40:27.223Z,100164.47
2022-11-28T11:42:56.983Z,100160.41
2022-11-28T11:45:27.729Z,100162.19
2022-11-28T11:47:55.237Z,100165.94
2022-11-28T11:50:24.698Z,100173.16
2022-11-28T11:53:03.644Z,100174.78
2022-11-28T11:55:34.061Z,100170.28
2022-11-28T11:58:05.836Z,100172.34
2022-11-28T12:00:37.541Z,100165.16
2022-11-28T12:03:11.523Z,100174.38
2022-11-28T12:06:12.773Z,100169.44
2022-11-28T12:08:39.297Z,100181.34
2022-11-28T12:11:14.911Z,100180.47
2022-11-28T12:13:42.519Z,100175.78
2022-11-28T12:16:23.833Z,100178.19
2022-11-28T12:18:55.343Z,100179.06
2022-11-28T12:21:27.598Z,100180.91
2022-11-28T12:24:10.662Z,100177.41
2022-11-28T12:26:45.408Z,100176.19
2022-11-28T12:29:28.384Z,100173.09
2022-11-28T12:32:06.668Z,100178.88
2022-11-28T12:34:41.896Z,100172.28
2022-11-28T12:37:17.838Z,100170.66
2022-11-28T12:39:51.927Z,100176.00
2022-11-28T12:42:50.650Z,100169.44
2022-11-28T12:45:38.294Z,100173.72
2022-11-28T12:48:21.184Z,100175.34
2022-11-28T12:50:51.183Z,100175.97
2022-11-28T12:53:32.665Z,100178.44
2022-11-28T12:56:08.675Z,100177.22
2022-11-28T12:58:41.209Z,100176.78
2022-11-28T13:01:27.520Z,100175.19
2022-11-28T13:04:02.867Z,100179.28
2022-11-28T13:06:37.687Z,100183.97
2022-11-28T13:09:23.609Z,100190.16
2022-11-28T13:12:00.789Z,100184.25
2022-11-28T13:14:39.107Z,100193.28
2022-11-28T13:17:16.561Z,100184.25
2022-11-28T13:19:48.272Z,100196.38
2022-11-28T13:22:23.452Z,100186.50
2022-11-28T13:24:56.607Z,100187.31
2022-11-28T13:27:36.169Z,100187.13
2022-11-28T13:30:14.494Z,100190.84
2022-11-28T13:32:47.239Z,100187.97
2022-11-28T13:35:15.528Z,100194.13
2022-11-28T13:40:39.131Z,100191.66
2022-11-28T13:43:11.857Z,100193.72
2022-11-28T13:45:43.784Z,100196.41
2022-11-28T13:51:37.793Z,100198.66
2022-11-28T13:54:49.088Z,100198.25
2022-11-28T13:57:26.521Z,100195.34
2022-11-28T14:00:06.904Z,100200.06
2022-11-28T14:02:42.102Z,100200.09
2022-11-28T14:05:26.374Z,100199.47
2022-11-28T14:07:55.975Z,100201.91
2022-11-28T14:10:42.502Z,100204.38
2022-11-28T14:13:33.422Z,100199.47
2022-11-28T14:16:08.214Z,100207.28
2022-11-28T14:18:56.622Z,100212.59
2022-11-28T14:21:32.498Z,100204.38
2022-11-28T14:24:04.192Z,100208.09
2022-11-28T14:26:34.382Z,100214.66
2022-11-28T14:29:02.953Z,100212.81
2022-11-28T14:31:32.234Z,100213.00
2022-11-28T14:34:02.555Z,100218.38
2022-11-28T14:36:33.764Z,100225.16
2022-11-28T14:39:05.394Z,100224.94
2022-11-28T14:41:32.982Z,100224.31
2022-11-28T14:44:33.785Z,100228.41
2022-11-28T14:47:14.774Z,100224.50
2022-11-28T14:49:44.924Z,100226.38
2022-11-28T14:52:38.954Z,100223.50
2022-11-28T14:55:17.213Z,100231.31
2022-11-28T14:57:57.046Z,100234.38
2022-11-28T15:00:27.687Z,100234.38
2022-11-28T15:03:08.412Z,100235.59
2022-11-28T15:05:41.302Z,100239.31
2022-11-28T15:08:24.798Z,100239.31
2022-11-28T15:10:56.746Z,100236.03
2022-11-28T15:13:34.326Z,100236.03
2022-11-28T15:16:04.570Z,100240.53
2022-11-28T15:18:34.672Z,100246.09
2022-11-28T15:21:06.602Z,100246.28
2022-11-28T15:23:38.302Z,100251.22
2022-11-28T15:26:07.029Z,100250.81
2022-11-28T15:28:36.182Z,100249.78
2022-11-28T15:31:05.608Z,100251.84
2022-11-28T15:33:33.577Z,100268.44
2022-11-28T15:36:10.451Z,100259.22
2022-11-28T15:38:39.187Z,100262.50
2022-11-28T15:41:06.730Z,100267.44
2022-11-28T15:43:34.547Z,100261.28
2022-11-28T15:46:02.614Z,100275.41
2022-11-28T15:48:39.474Z,100266.81
2022-11-28T15:51:09.456Z,100265.78
2022-11-28T15:53:42.143Z,100268.06
2022-11-28T15:56:11.778Z,100267.22
2022-11-28T15:58:40.235Z,100263.94
2022-11-28T16:01:11.567Z,100270.50
2022-11-28T16:03:46.717Z,100269.50
2022-11-28T16:06:17.557Z,100265.56
2022-11-28T16:08:50.305Z,100279.53
2022-11-28T16:11:19.808Z,100281.97
2022-11-28T16:13:48.298Z,100280.78
2022-11-28T16:16:17.980Z,100284.84
2022-11-28T16:18:46.893Z,100280.34
2022-11-28T16:21:16.177Z,100279.13
2022-11-28T16:23:44.081Z,100279.53
2022-11-28T16:26:23.062Z,100283.41
2022-11-28T16:29:00.641Z,100273.78
2022-11-28T16:31:29.717Z,100286.31
2022-11-28T16:33:58.184Z,100282.63
2022-11-28T16:36:32.185Z,100288.97
2022-11-28T16:39:06.592Z,100297.38
2022-11-28T16:41:36.320Z,100298.63
2022-11-28T16:44:05.995Z,100305.81
2022-11-28T16:46:35.694Z,100297.81
2022-11-28T16:49:05.111Z,100304.56
2022-11-28T16:51:38.637Z,100302.31
2022-11-28T16:54:39.240Z,100301.28
2022-11-28T16:57:11.936Z,100302.94
2022-11-28T16:59:39.619Z,100294.72
2022-11-28T17:02:14.887Z,100309.91
2022-11-28T17:04:42.810Z,100306.81
2022-11-28T17:07:13.975Z,100315.25
2022-11-28T17:09:42.148Z,100316.66
2022-11-28T17:12:15.836Z,100320.38
2022-11-28T17:14:44.053Z,100323.44
2022-11-28T17:17:13.374Z,100318.94
2022-11-28T17:19:41.084Z,100318.09
2022-11-28T17:22:09.560Z,100317.31
2022-11-28T17:24:38.883Z,100323.66
2022-11-28T17:27:08.622Z,100318.94
2022-11-28T17:29:37.079Z,100326.31
2022-11-28T17:32:05.387Z,100328.16
2022-11-28T17:34:34.870Z,100327.16
2022-11-28T17:37:03.331Z,100334.94
2022-11-28T17:39:30.955Z,100328.56
2022-11-28T17:41:59.900Z,100329.56
2022-11-28T17:44:29.453Z,100329.00
2022-11-28T17:47:00.415Z,100333.09
2022-11-28T17:49:28.537Z,100332.88
2022-11-28T17:51:57.572Z,100334.13
2022-11-28T17:54:26.772Z,100331.22
2022-11-28T17:56:54.967Z,100329.59
2022-11-28T17:59:26.884Z,100340.69
2022-11-28T18:01:54.751Z,100339.66
2022-11-28T18:04:23.037Z,100337.19
2022-11-28T18:06:50.550Z,100337.22
2022-11-28T18:09:18.271Z,100344.78
2022-11-28T18:11:46.290Z,100345.78
2022-11-28T18:14:14.287Z,100342.34
2022-11-28T18:16:43.985Z,100345.19
2022-11-28T18:19:11.704Z,100346.00
2022-11-28T18:21:40.125Z,100357.50
2022-11-28T18:24:08.712Z,100355.25
2022-11-28T18:26:37.661Z,100351.97
2022-11-28T18:29:06.869Z,100351.34
2022-11-28T18:31:35.065Z,100346.84
2022-11-28T18:34:06.292Z,100347.63
2022-11-28T18:36:35.158Z,100355.06
2022-11-28T18:39:05.020Z,100353.41
2022-11-28T18:41:33.033Z,100359.13
2022-11-28T18:44:02.249Z,100359.56
2022-11-28T18:46:30.609Z,100359.56
2022-11-28T18:48:58.785Z,100362.22
2022-11-28T18:51:31.565Z,100358.34
2022-11-28T18:53:59.483Z,100362.44
2022-11-28T18:56:29.219Z,100365.72
2022-11-28T18:58:58.562Z,100361.81
2022-11-28T19:01:28.493Z,100372.69
2022-11-28T19:03:57.834Z,100375.78
2022-11-28T19:06:25.433Z,100379.25
2022-11-28T19:08:56.054Z,100376.78
2022-11-28T19:11:24.928Z,100385.41
2022-11-28T19:13:53.709Z,100385.19
2022-11-28T19:16:23.378Z,100380.91
2022-11-28T19:18:51.306Z,100388.69
2022-11-28T19:21:20.800Z,100389.13
2022-11-28T19:23:48.647Z,100390.34
2022-11-28T19:26:20.059Z,100390.34
2022-11-28T19:28:48.150Z,100390.97
2022-11-28T19:31:20.241Z,100385.44
2022-11-28T19:33:48.729Z,100387.09
2022-11-28T19:36:16.314Z,100390.34
2022-11-28T19:38:43.843Z,100403.28
2022-11-28T19:41:13.650Z,100399.41
2022-11-28T19:43:44.462Z,100405.13
2022-11-28T19:46:13.007Z,100409.25
2022-11-28T19:48:41.565Z,100404.31
2022-11-28T19:51:10.455Z,100402.25
2022-11-28T19:53:43.863Z,100404.13
2022-11-28T19:56:14.599Z,100408.41
2022-11-28T19:58:42.170Z,100409.66
2022-11-28T20:01:13.386Z,100411.09
2022-11-28T20:03:42.343Z,100407.59
2022-11-28T20:06:11.015Z,100419.09
2022-11-28T20:08:39.213Z,100416.25
2022-11-28T20:11:11.620Z,100420.13
2022-11-28T20:13:39.407Z,100423.19
2022-11-28T20:16:08.764Z,100421.97
2022-11-28T20:18:39.254Z,100425.47
2022-11-28T20:21:07.951Z,100421.97
2022-11-28T20:23:40.200Z,100423.41
2022-11-28T20:26:08.131Z,100424.84
2022-11-28T20:28:37.266Z,100424.25
2022-11-28T20:31:06.060Z,100425.69
2022-11-28T20:33:33.858Z,100423.63
2022-11-28T20:36:11.111Z,100427.31
2022-11-28T20:38:40.406Z,100423.81
2022-11-28T20:41:09.291Z,100420.75
2022-11-28T20:43:38.719Z,100428.75
2022-11-28T20:46:07.755Z,100428.97
2022-11-28T20:48:35.775Z,100425.47
2022-11-28T20:51:03.462Z,100433.09
2022-11-28T20:53:32.474Z,100424.44
2022-11-28T20:56:01.296Z,100433.47
2022-11-28T20:58:29.570Z,100434.91
2022-11-28T21:00:57.373Z,100441.09
2022-11-28T21:03:25.645Z,100431.84
2022-11-28T21:05:59.360Z,100436.59
2022-11-28T21:08:30.275Z,100437.16
2022-11-28T21:10:59.367Z,100438.38
2022-11-28T21:13:26.932Z,100437.97
2022-11-28T21:15:54.503Z,100441.91
2022-11-28T21:18:22.142Z,100441.91
2022-11-28T21:20:52.792Z,100442.09
2022-11-28T21:23:20.519Z,100440.88
2022-11-28T21:25:48.042Z,100446.03
2022-11-28T21:28:17.094Z,100445.38
2022-11-28T21:30:46.089Z,100447.25
2022-11-28T21:33:14.241Z,100454.03
2022-11-28T21:35:41.886Z,100450.53
2022-11-28T21:38:09.484Z,100441.69
2022-11-28T21:40:37.030Z,100451.38
2022-11-28T21:43:04.717Z,100454.88
2022-11-28T21:45:35.767Z,100443.72
2022-11-28T21:48:03.399Z,100451.53
2022-11-28T21:50:30.996Z,100456.88
2022-11-28T21:52:58.724Z,100451.94
2022-11-28T21:55:26.301Z,100459.31
2022-11-28T21:57:53.808Z,100467.13
2022-11-28T22:00:46.030Z,100466.72
2022-11-28T22:03:14.102Z,100463.06
2022-11-28T22:05:42.115Z,100462.66
2022-11-28T22:08:10.669Z,100461.00
2022-11-28T22:10:38.547Z,100461.41
2022-11-28T22:13:06.304Z,100454.81
2022-11-28T22:15:34.022Z,100461.00
2022-11-28T22:18:01.594Z,100462.44
2022-11-28T22:20:30.767Z,100459.78
2022-11-28T22:22:58.541Z,100459.38
2022-11-28T22:25:26.253Z,100462.03
2022-11-28T22:27:53.855Z,100468.59
2022-11-28T22:30:21.877Z,100464.94
2022-11-28T22:32:49.469Z,100460.78
2022-11-28T22:35:17.244Z,100466.31
2022-11-28T22:37:46.212Z,100479.88
2022-11-28T22:40:15.643Z,100476.00
2022-11-28T22:42:43.315Z,100466.31
2022-11-28T22:45:11.132Z,100462.66
2022-11-28T22:47:38.800Z,100473.50
2022-11-28T22:50:07.881Z,100472.06
2022-11-28T22:52:35.427Z,100467.56
2022-11-28T22:55:04.614Z,100465.94
2022-11-28T22:57:32.383Z,100472.94
2022-11-28T22:59:59.943Z,100473.34
2022-11-28T23:02:27.576Z,100470.03
2022-11-28T23:04:55.308Z,100474.56
2022-11-28T23:07:23.143Z,100474.97
2022-11-28T23:09:51.365Z,100479.06
2022-11-28T23:12:20.600Z,100472.88
2022-11-28T23:14:51.444Z,100473.50
2022-11-28T23:17:19.471Z,100473.50
2022-11-28T23:19:47.351Z,100482.75
2022-11-28T23:22:15.003Z,100478.44
2022-11-28T23:24:42.789Z,100485.22
2022-11-28T23:27:10.528Z,100480.28
2022-11-28T23:29:39.445Z,100480.28
2022-11-28T23:32:07.306Z,100485.22
2022-11-28T23:34:35.003Z,100489.34
2022-11-28T23:37:03.604Z,100489.34
2022-11-28T23:39:31.242Z,100487.72
2022-11-28T23:42:00.005Z,100488.13
2022-11-28T23:44:27.522Z,100486.06
2022-11-28T23:46:56.600Z,100486.06
2022-11-28T23:49:24.114Z,100489.78
2022-11-28T23:51:51.685Z,100488.75
2022-11-28T23:54:19.264Z,100488.13
2022-11-28T23:56:46.807Z,100485.84
2022-11-28T23:59:14.379Z,100489.34
